sensor_id;sensor_type;location;lat;lon;timestamp;pressure;altitude;pressure_sealevel;temperature;humidity
64192;BME280;50497;50.720;-2.084;2023-10-13T00:00:27;102927.69;;;15.82;100.00
64192;BME280;50497;50.720;-2.084;2023-10-13T00:02:55;102927.69;;;15.82;100.00
64192;BME280;50497;50.720;-2.084;2023-10-13T00:05:21;102935.69;;;15.85;100.00
64192;BME280;50497;50.720;-2.084;2023-10-13T00:07:46;102933.97;;;15.84;100.00
64192;BME280;50497;50.720;-2.084;2023-10-13T00:10:12;102914.06;;;15.86;100.00
64192;BME280;50497;50.720;-2.084;2023-10-13T00:12:37;102837.66;;;15.84;100.00
64192;BME280;50497;50.720;-2.084;2023-10-13T00:15:03;102838.41;;;15.88;100.00
64192;BME280;50497;50.720;-2.084;2023-10-13T00:17:29;102823.41;;;15.81;100.00
64192;BME280;50497;50.720;-2.084;2023-10-13T00:19:57;102818.75;;;15.84;100.00
64192;BME280;50497;50.720;-2.084;2023-10-13T00:22:25;102782.53;;;15.90;100.00
64192;BME280;50497;50.720;-2.084;2023-10-13T00:24:52;102787.19;;;15.86;100.00
64192;BME280;50497;50.720;-2.084;2023-10-13T00:27:23;102762.94;;;15.85;100.00
64192;BME280;50497;50.720;-2.084;2023-10-13T00:29:58;102759.31;;;15.86;100.00
64192;BME280;50497;50.720;-2.084;2023-10-13T00:32:42;102752.78;;;15.92;100.00
64192;BME280;50497;50.720;-2.084;2023-10-13T00:35:11;102757.22;;;15.94;100.00
64192;BME280;50497;50.720;-2.084;2023-10-13T00:37:39;102752.63;;;15.96;100.00
64192;BME280;50497;50.720;-2.084;2023-10-13T00:40:10;102745.41;;;15.97;100.00
64192;BME280;50497;50.720;-2.084;2023-10-13T00:42:59;102711.16;;;15.99;100.00
64192;BME280;50497;50.720;-2.084;2023-10-13T00:45:44;102713.66;;;16.03;100.00
64192;BME280;50497;50.720;-2.084;2023-10-13T00:48:13;102695.25;;;16.13;100.00
64192;BME280;50497;50.720;-2.084;2023-10-13T00:50:39;102682.66;;;16.14;100.00
64192;BME280;50497;50.720;-2.084;2023-10-13T00:53:06;102680.44;;;16.23;100.00
64192;BME280;50497;50.720;-2.084;2023-10-13T00:55:32;102667.09;;;16.20;100.00
64192;BME280;50497;50.720;-2.084;2023-10-13T00:57:59;102664.19;;;16.25;100.00
64192;BME280;50497;50.720;-2.084;2023-10-13T01:00:28;102656.88;;;16.29;100.00
64192;BME280;50497;50.720;-2.084;2023-10-13T01:02:54;102652.22;;;16.32;100.00
64192;BME280;50497;50.720;-2.084;2023-10-13T01:05:23;102649.28;;;16.37;100.00
64192;BME280;50497;50.720;-2.084;2023-10-13T01:07:50;102646.34;;;16.43;100.00
64192;BME280;50497;50.720;-2.084;2023-10-13T01:10:19;102642.25;;;16.55;100.00
64192;BME280;50497;50.720;-2.084;2023-10-13T01:12:45;102644.94;;;16.55;100.00
64192;BME280;50497;50.720;-2.084;2023-10-13T01:15:17;102627.63;;;16.60;100.00
64192;BME280;50497;50.720;-2.084;2023-10-13T01:17:45;102629.16;;;16.66;100.00
64192;BME280;50497;50.720;-2.084;2023-10-13T01:20:11;102653.22;;;16.72;100.00
64192;BME280;50497;50.720;-2.084;2023-10-13T01:22:43;102640.31;;;16.79;100.00
64192;BME280;50497;50.720;-2.084;2023-10-13T01:25:09;102641.00;;;16.84;100.00
64192;BME280;50497;50.720;-2.084;2023-10-13T01:27:38;102638.00;;;16.92;100.00
64192;BME280;50497;50.720;-2.084;2023-10-13T01:30:03;102635.06;;;16.96;100.00
64192;BME280;50497;50.720;-2.084;2023-10-13T01:32:35;102623.25;;;16.99;100.00
64192;BME280;50497;50.720;-2.084;2023-10-13T01:35:06;102612.25;;;17.04;100.00
64192;BME280;50497;50.720;-2.084;2023-10-13T01:37:31;102615.94;;;17.01;100.00
64192;BME280;50497;50.720;-2.084;2023-10-13T01:39:56;102615.00;;;17.02;100.00
64192;BME280;50497;50.720;-2.084;2023-10-13T01:42:22;102594.19;;;17.04;100.00
64192;BME280;50497;50.720;-2.084;2023-10-13T01:44:49;102602.44;;;17.01;100.00
64192;BME280;50497;50.720;-2.084;2023-10-13T01:47:14;102585.13;;;17.05;100.00
64192;BME280;50497;50.720;-2.084;2023-10-13T01:49:41;102584.31;;;17.03;100.00
64192;BME280;50497;50.720;-2.084;2023-10-13T01:52:07;102594.91;;;17.08;100.00
64192;BME280;50497;50.720;-2.084;2023-10-13T01:54:33;102597.75;;;17.05;100.00
64192;BME280;50497;50.720;-2.084;2023-10-13T01:56:58;102586.06;;;17.04;100.00
64192;BME280;50497;50.720;-2.084;2023-10-13T01:59:25;102555.53;;;17.02;100.00
64192;BME280;50497;50.720;-2.084;2023-10-13T02:01:51;102565.53;;;17.00;100.00
64192;BME280;50497;50.720;-2.084;2023-10-13T02:04:20;102564.78;;;16.96;100.00
64192;BME280;50497;50.720;-2.084;2023-10-13T02:06:46;102555.66;;;16.99;100.00
64192;BME280;50497;50.720;-2.084;2023-10-13T02:09:11;102551.19;;;16.98;100.00
64192;BME280;50497;50.720;-2.084;2023-10-13T02:11:50;102521.50;;;16.96;100.00
64192;BME280;50497;50.720;-2.084;2023-10-13T02:14:19;102510.69;;;16.96;100.00
64192;BME280;50497;50.720;-2.084;2023-10-13T02:16:47;102494.78;;;16.90;100.00
64192;BME280;50497;50.720;-2.084;2023-10-13T02:19:15;102501.13;;;16.89;100.00
64192;BME280;50497;50.720;-2.084;2023-10-13T02:21:43;102480.38;;;16.90;100.00
64192;BME280;50497;50.720;-2.084;2023-10-13T02:24:09;102447.00;;;16.91;100.00
64192;BME280;50497;50.720;-2.084;2023-10-13T02:26:38;102445.09;;;16.93;100.00
64192;BME280;50497;50.720;-2.084;2023-10-13T02:29:04;102438.81;;;16.92;100.00
64192;BME280;50497;50.720;-2.084;2023-10-13T02:31:36;102446.84;;;16.94;100.00
64192;BME280;50497;50.720;-2.084;2023-10-13T02:34:01;102421.53;;;16.95;100.00
64192;BME280;50497;50.720;-2.084;2023-10-13T02:36:31;102412.78;;;16.90;100.00
64192;BME280;50497;50.720;-2.084;2023-10-13T02:39:12;102400.09;;;16.92;100.00
64192;BME280;50497;50.720;-2.084;2023-10-13T02:41:38;102393.34;;;17.01;100.00
64192;BME280;50497;50.720;-2.084;2023-10-13T02:44:05;102383.53;;;16.98;100.00
64192;BME280;50497;50.720;-2.084;2023-10-13T02:46:31;102370.09;;;16.96;100.00
64192;BME280;50497;50.720;-2.084;2023-10-13T02:49:00;102351.09;;;16.98;100.00
64192;BME280;50497;50.720;-2.084;2023-10-13T02:51:27;102307.41;;;17.07;100.00
64192;BME280;50497;50.720;-2.084;2023-10-13T02:54:11;102267.41;;;17.14;100.00
64192;BME280;50497;50.720;-2.084;2023-10-13T02:56:59;102189.03;;;16.95;100.00
64192;BME280;50497;50.720;-2.084;2023-10-13T02:59:29;102138.00;;;17.06;100.00
64192;BME280;50497;50.720;-2.084;2023-10-13T03:02:11;102098.06;;;17.11;100.00
64192;BME280;50497;50.720;-2.084;2023-10-13T03:04:48;102020.25;;;17.16;100.00
64192;BME280;50497;50.720;-2.084;2023-10-13T03:07:14;101864.97;;;17.21;100.00
64192;BME280;50497;50.720;-2.084;2023-10-13T03:09:49;101705.94;;;17.27;100.00
64192;BME280;50497;50.720;-2.084;2023-10-13T03:12:17;101504.34;;;17.22;100.00
64192;BME280;50497;50.720;-2.084;2023-10-13T03:14:43;101381.38;;;17.27;100.00
64192;BME280;50497;50.720;-2.084;2023-10-13T03:17:13;101298.72;;;17.23;100.00
64192;BME280;50497;50.720;-2.084;2023-10-13T03:19:42;101150.66;;;17.27;100.00
64192;BME280;50497;50.720;-2.084;2023-10-13T03:22:11;101002.88;;;17.51;100.00
64192;BME280;50497;50.720;-2.084;2023-10-13T03:24:38;100935.66;;;17.58;100.00
64192;BME280;50497;50.720;-2.084;2023-10-13T03:27:10;101064.31;;;17.62;100.00
64192;BME280;50497;50.720;-2.084;2023-10-13T03:29:37;101366.41;;;17.63;100.00
64192;BME280;50497;50.720;-2.084;2023-10-13T03:32:09;101258.69;;;17.81;100.00
64192;BME280;50497;50.720;-2.084;2023-10-13T03:34:40;101035.19;;;17.66;100.00
64192;BME280;50497;50.720;-2.084;2023-10-13T03:37:15;100905.59;;;17.74;100.00
64192;BME280;50497;50.720;-2.084;2023-10-13T03:39:44;100812.50;;;17.77;100.00
64192;BME280;50497;50.720;-2.084;2023-10-13T03:42:10;100753.38;;;17.83;100.00
64192;BME280;50497;50.720;-2.084;2023-10-13T03:44:43;100702.34;;;17.90;100.00
64192;BME280;50497;50.720;-2.084;2023-10-13T03:47:11;100667.41;;;17.98;100.00
64192;BME280;50497;50.720;-2.084;2023-10-13T03:49:44;100640.44;;;17.85;100.00
64192;BME280;50497;50.720;-2.084;2023-10-13T03:52:09;100618.94;;;17.95;100.00
64192;BME280;50497;50.720;-2.084;2023-10-13T03:54:39;100599.38;;;17.91;100.00
64192;BME280;50497;50.720;-2.084;2023-10-13T03:57:06;100585.31;;;17.98;100.00
64192;BME280;50497;50.720;-2.084;2023-10-13T03:59:36;100575.25;;;18.00;100.00
64192;BME280;50497;50.720;-2.084;2023-10-13T04:02:01;100563.06;;;17.94;100.00
64192;BME280;50497;50.720;-2.084;2023-10-13T04:04:29;100577.97;;;17.88;100.00
64192;BME280;50497;50.720;-2.084;2023-10-13T04:07:07;100571.56;;;17.89;100.00
64192;BME280;50497;50.720;-2.084;2023-10-13T04:09:38;100576.97;;;17.89;100.00
64192;BME280;50497;50.720;-2.084;2023-10-13T04:12:12;100595.19;;;17.99;100.00
64192;BME280;50497;50.720;-2.084;2023-10-13T04:14:41;100605.75;;;17.90;100.00
64192;BME280;50497;50.720;-2.084;2023-10-13T04:17:25;100595.28;;;17.86;100.00
64192;BME280;50497;50.720;-2.084;2023-10-13T04:19:52;100613.75;;;17.92;100.00
64192;BME280;50497;50.720;-2.084;2023-10-13T04:22:33;100620.41;;;17.99;100.00
64192;BME280;50497;50.720;-2.084;2023-10-13T04:28:07;100642.69;;;17.91;100.00
64192;BME280;50497;50.720;-2.084;2023-10-13T04:30:38;100633.94;;;17.99;100.00
64192;BME280;50497;50.720;-2.084;2023-10-13T04:33:23;100652.16;;;17.97;100.00
64192;BME280;50497;50.720;-2.084;2023-10-13T04:38:26;100656.97;;;18.05;100.00
64192;BME280;50497;50.720;-2.084;2023-10-13T04:40:58;100688.19;;;18.09;100.00
64192;BME280;50497;50.720;-2.084;2023-10-13T04:43:26;100657.31;;;18.12;100.00
64192;BME280;50497;50.720;-2.084;2023-10-13T04:46:26;100681.94;;;18.08;100.00
64192;BME280;50497;50.720;-2.084;2023-10-13T04:49:19;100667.66;;;18.06;100.00
64192;BME280;50497;50.720;-2.084;2023-10-13T04:51:57;100682.16;;;17.94;100.00
64192;BME280;50497;50.720;-2.084;2023-10-13T04:54:52;100678.72;;;17.92;100.00
64192;BME280;50497;50.720;-2.084;2023-10-13T04:57:24;100708.94;;;17.86;100.00
64192;BME280;50497;50.720;-2.084;2023-10-13T05:00:08;100700.56;;;17.78;100.00
64192;BME280;50497;50.720;-2.084;2023-10-13T05:02:40;100709.78;;;17.75;100.00
64192;BME280;50497;50.720;-2.084;2023-10-13T05:05:14;100708.09;;;17.85;100.00
64192;BME280;50497;50.720;-2.084;2023-10-13T05:07:40;100739.00;;;17.94;100.00
64192;BME280;50497;50.720;-2.084;2023-10-13T05:10:24;100753.28;;;17.96;100.00
64192;BME280;50497;50.720;-2.084;2023-10-13T05:13:08;100726.94;;;17.87;100.00
64192;BME280;50497;50.720;-2.084;2023-10-13T05:15:52;100749.28;;;17.78;100.00
64192;BME280;50497;50.720;-2.084;2023-10-13T05:18:36;100767.34;;;17.77;100.00
64192;BME280;50497;50.720;-2.084;2023-10-13T05:21:20;100793.91;;;17.72;100.00
64192;BME280;50497;50.720;-2.084;2023-10-13T05:24:05;100813.81;;;17.71;100.00
64192;BME280;50497;50.720;-2.084;2023-10-13T05:26:48;100848.25;;;17.69;100.00
64192;BME280;50497;50.720;-2.084;2023-10-13T05:29:33;100896.00;;;17.70;100.00
64192;BME280;50497;50.720;-2.084;2023-10-13T05:32:16;100946.75;;;17.66;100.00
64192;BME280;50497;50.720;-2.084;2023-10-13T05:35:00;101004.47;;;17.67;100.00
64192;BME280;50497;50.720;-2.084;2023-10-13T05:37:44;101054.88;;;17.68;100.00
64192;BME280;50497;50.720;-2.084;2023-10-13T05:40:36;101117.34;;;17.65;100.00
64192;BME280;50497;50.720;-2.084;2023-10-13T05:43:19;101202.41;;;17.61;100.00
64192;BME280;50497;50.720;-2.084;2023-10-13T05:46:05;101271.00;;;17.60;100.00
64192;BME280;50497;50.720;-2.084;2023-10-13T05:48:49;101338.09;;;17.54;100.00
64192;BME280;50497;50.720;-2.084;2023-10-13T05:51:25;101425.97;;;17.49;100.00
64192;BME280;50497;50.720;-2.084;2023-10-13T05:54:09;101502.00;;;17.44;100.00
64192;BME280;50497;50.720;-2.084;2023-10-13T05:56:41;101570.81;;;17.40;100.00
64192;BME280;50497;50.720;-2.084;2023-10-13T05:59:25;101647.50;;;17.39;100.00
64192;BME280;50497;50.720;-2.084;2023-10-13T06:02:08;101701.78;;;17.36;100.00
64192;BME280;50497;50.720;-2.084;2023-10-13T06:04:52;101750.66;;;17.33;100.00
64192;BME280;50497;50.720;-2.084;2023-10-13T06:07:36;101791.06;;;17.36;100.00
64192;BME280;50497;50.720;-2.084;2023-10-13T06:10:20;101811.91;;;17.34;100.00
64192;BME280;50497;50.720;-2.084;2023-10-13T06:13:09;101844.47;;;17.32;100.00
64192;BME280;50497;50.720;-2.084;2023-10-13T06:15:52;101856.53;;;17.27;100.00
64192;BME280;50497;50.720;-2.084;2023-10-13T06:18:36;101862.38;;;17.19;100.00
64192;BME280;50497;50.720;-2.084;2023-10-13T06:21:21;101898.84;;;17.12;100.00
64192;BME280;50497;50.720;-2.084;2023-10-13T06:24:05;101938.16;;;17.02;100.00
64192;BME280;50497;50.720;-2.084;2023-10-13T06:26:49;102009.41;;;17.01;100.00
64192;BME280;50497;50.720;-2.084;2023-10-13T06:29:33;102124.88;;;16.98;100.00
64192;BME280;50497;50.720;-2.084;2023-10-13T06:31:58;102223.25;;;16.96;100.00
64192;BME280;50497;50.720;-2.084;2023-10-13T06:34:27;102271.91;;;16.96;100.00
64192;BME280;50497;50.720;-2.084;2023-10-13T06:37:05;102370.19;;;16.95;100.00
64192;BME280;50497;50.720;-2.084;2023-10-13T06:39:48;102479.34;;;16.92;100.00
64192;BME280;50497;50.720;-2.084;2023-10-13T06:42:13;102557.56;;;16.97;100.00
64192;BME280;50497;50.720;-2.084;2023-10-13T06:44:38;102628.81;;;16.96;100.00
64192;BME280;50497;50.720;-2.084;2023-10-13T06:47:05;102690.06;;;16.97;100.00
64192;BME280;50497;50.720;-2.084;2023-10-13T06:49:30;102599.06;;;16.96;100.00
64192;BME280;50497;50.720;-2.084;2023-10-13T06:52:03;102355.66;;;16.97;100.00
64192;BME280;50497;50.720;-2.084;2023-10-13T06:54:33;101992.50;;;16.97;100.00
64192;BME280;50497;50.720;-2.084;2023-10-13T06:57:00;101987.94;;;16.97;100.00
64192;BME280;50497;50.720;-2.084;2023-10-13T06:59:25;101987.88;;;16.99;100.00
64192;BME280;50497;50.720;-2.084;2023-10-13T07:01:52;101966.78;;;17.06;100.00
64192;BME280;50497;50.720;-2.084;2023-10-13T07:04:17;101947.16;;;17.02;100.00
64192;BME280;50497;50.720;-2.084;2023-10-13T07:06:43;101930.03;;;17.02;100.00
64192;BME280;50497;50.720;-2.084;2023-10-13T07:09:15;101927.25;;;17.03;100.00
64192;BME280;50497;50.720;-2.084;2023-10-13T07:12:04;101909.31;;;17.02;100.00
64192;BME280;50497;50.720;-2.084;2023-10-13T07:14:32;101888.69;;;16.99;100.00
64192;BME280;50497;50.720;-2.084;2023-10-13T07:17:02;101855.22;;;17.02;100.00
64192;BME280;50497;50.720;-2.084;2023-10-13T07:19:29;101863.34;;;17.02;100.00
64192;BME280;50497;50.720;-2.084;2023-10-13T07:21:58;101848.75;;;17.05;100.00
64192;BME280;50497;50.720;-2.084;2023-10-13T07:24:27;101839.59;;;17.07;100.00
64192;BME280;50497;50.720;-2.084;2023-10-13T07:26:59;101829.75;;;17.06;100.00
64192;BME280;50497;50.720;-2.084;2023-10-13T07:29:29;101825.22;;;17.07;100.00
64192;BME280;50497;50.720;-2.084;2023-10-13T07:31:55;101817.91;;;17.09;100.00
64192;BME280;50497;50.720;-2.084;2023-10-13T07:34:20;101828.72;;;17.09;100.00
64192;BME280;50497;50.720;-2.084;2023-10-13T07:36:54;101841.25;;;17.10;100.00
64192;BME280;50497;50.720;-2.084;2023-10-13T07:39:25;101857.38;;;17.11;100.00
64192;BME280;50497;50.720;-2.084;2023-10-13T07:41:51;101852.06;;;17.10;100.00
64192;BME280;50497;50.720;-2.084;2023-10-13T07:44:20;101860.97;;;17.12;100.00
64192;BME280;50497;50.720;-2.084;2023-10-13T07:46:49;101869.78;;;17.15;100.00
64192;BME280;50497;50.720;-2.084;2023-10-13T07:49:22;101880.78;;;17.12;100.00
64192;BME280;50497;50.720;-2.084;2023-10-13T07:51:48;101888.09;;;17.10;100.00
64192;BME280;50497;50.720;-2.084;2023-10-13T07:54:16;101907.03;;;17.10;100.00
64192;BME280;50497;50.720;-2.084;2023-10-13T07:56:49;101908.75;;;17.11;100.00
64192;BME280;50497;50.720;-2.084;2023-10-13T07:59:15;101920.63;;;17.09;100.00
64192;BME280;50497;50.720;-2.084;2023-10-13T08:01:41;101943.31;;;17.06;100.00
64192;BME280;50497;50.720;-2.084;2023-10-13T08:04:16;101964.16;;;17.04;100.00
64192;BME280;50497;50.720;-2.084;2023-10-13T08:06:53;101975.84;;;17.05;100.00
64192;BME280;50497;50.720;-2.084;2023-10-13T08:09:27;101999.31;;;17.04;100.00
64192;BME280;50497;50.720;-2.084;2023-10-13T08:11:56;102020.06;;;17.04;100.00
64192;BME280;50497;50.720;-2.084;2023-10-13T08:14:21;102045.19;;;17.06;100.00
64192;BME280;50497;50.720;-2.084;2023-10-13T08:16:54;102050.84;;;17.01;100.00
64192;BME280;50497;50.720;-2.084;2023-10-13T08:19:25;102064.19;;;17.04;100.00
64192;BME280;50497;50.720;-2.084;2023-10-13T08:21:59;102080.19;;;17.09;100.00
64192;BME280;50497;50.720;-2.084;2023-10-13T08:24:44;102072.78;;;17.12;100.00
64192;BME280;50497;50.720;-2.084;2023-10-13T08:27:10;102086.28;;;17.12;100.00
64192;BME280;50497;50.720;-2.084;2023-10-13T08:29:54;101982.38;;;17.16;100.00
64192;BME280;50497;50.720;-2.084;2023-10-13T08:32:22;101983.19;;;17.18;100.00
64192;BME280;50497;50.720;-2.084;2023-10-13T08:34:57;101986.84;;;17.17;100.00
64192;BME280;50497;50.720;-2.084;2023-10-13T08:37:23;101998.44;;;17.20;100.00
64192;BME280;50497;50.720;-2.084;2023-10-13T08:39:49;102010.88;;;17.24;100.00
64192;BME280;50497;50.720;-2.084;2023-10-13T08:42:37;102028.72;;;17.26;100.00
64192;BME280;50497;50.720;-2.084;2023-10-13T08:45:09;102039.31;;;17.31;100.00
64192;BME280;50497;50.720;-2.084;2023-10-13T08:47:55;102046.31;;;17.35;100.00
64192;BME280;50497;50.720;-2.084;2023-10-13T08:53:17;102063.00;;;17.43;100.00
64192;BME280;50497;50.720;-2.084;2023-10-13T08:56:01;102080.97;;;17.44;100.00
64192;BME280;50497;50.720;-2.084;2023-10-13T08:58:30;102098.94;;;17.45;100.00
64192;BME280;50497;50.720;-2.084;2023-10-13T09:01:17;102107.59;;;17.52;100.00
64192;BME280;50497;50.720;-2.084;2023-10-13T09:04:02;102112.03;;;17.53;100.00
64192;BME280;50497;50.720;-2.084;2023-10-13T09:06:52;102134.50;;;17.55;100.00
64192;BME280;50497;50.720;-2.084;2023-10-13T09:09:44;102129.88;;;17.57;100.00
64192;BME280;50497;50.720;-2.084;2023-10-13T09:12:18;102154.06;;;17.60;100.00
64192;BME280;50497;50.720;-2.084;2023-10-13T09:14:53;102158.56;;;17.60;100.00
64192;BME280;50497;50.720;-2.084;2023-10-13T09:17:30;102146.03;;;17.59;100.00
64192;BME280;50497;50.720;-2.084;2023-10-13T09:19:59;102150.56;;;17.58;100.00
64192;BME280;50497;50.720;-2.084;2023-10-13T09:22:44;102150.38;;;17.61;100.00
64192;BME280;50497;50.720;-2.084;2023-10-13T09:25:21;102179.28;;;17.61;100.00
64192;BME280;50497;50.720;-2.084;2023-10-13T09:27:48;102189.16;;;17.62;100.00
64192;BME280;50497;50.720;-2.084;2023-10-13T09:30:16;102183.59;;;17.65;100.00
64192;BME280;50497;50.720;-2.084;2023-10-13T09:32:58;102191.44;;;17.69;100.00
64192;BME280;50497;50.720;-2.084;2023-10-13T09:35:26;102170.84;;;17.67;100.00
64192;BME280;50497;50.720;-2.084;2023-10-13T09:37:52;102182.00;;;17.61;100.00
64192;BME280;50497;50.720;-2.084;2023-10-13T09:40:21;102178.50;;;17.59;100.00
64192;BME280;50497;50.720;-2.084;2023-10-13T09:43:11;102185.66;;;17.60;100.00
64192;BME280;50497;50.720;-2.084;2023-10-13T09:45:40;102173.25;;;17.55;100.00
64192;BME280;50497;50.720;-2.084;2023-10-13T09:48:09;102180.41;;;17.57;100.00
64192;BME280;50497;50.720;-2.084;2023-10-13T09:50:47;102161.72;;;17.52;100.00
64192;BME280;50497;50.720;-2.084;2023-10-13T09:53:13;102166.28;;;17.51;100.00
64192;BME280;50497;50.720;-2.084;2023-10-13T09:55:42;102157.25;;;17.51;100.00
64192;BME280;50497;50.720;-2.084;2023-10-13T09:58:10;102129.94;;;17.55;100.00
64192;BME280;50497;50.720;-2.084;2023-10-13T10:00:37;102117.75;;;17.64;100.00
64192;BME280;50497;50.720;-2.084;2023-10-13T10:03:13;102096.91;;;17.82;100.00
64192;BME280;50497;50.720;-2.084;2023-10-13T10:05:57;102073.69;;;17.94;100.00
64192;BME280;50497;50.720;-2.084;2023-10-13T10:08:38;102036.63;;;19.01;100.00
64192;BME280;50497;50.720;-2.084;2023-10-13T10:14:00;101444.97;;;20.06;100.00
64192;BME280;50497;50.720;-2.084;2023-10-13T10:19:17;100924.47;;;19.38;100.00
64192;BME280;50497;50.720;-2.084;2023-10-13T10:21:43;100780.41;;;19.42;100.00
64192;BME280;50497;50.720;-2.084;2023-10-13T10:24:20;100823.56;;;18.90;100.00
64192;BME280;50497;50.720;-2.084;2023-10-13T10:26:54;101214.41;;;18.83;100.00
64192;BME280;50497;50.720;-2.084;2023-10-13T10:29:20;101181.59;;;18.62;100.00
64192;BME280;50497;50.720;-2.084;2023-10-13T10:31:45;100961.81;;;18.54;100.00
64192;BME280;50497;50.720;-2.084;2023-10-13T10:34:12;100837.06;;;18.56;100.00
64192;BME280;50497;50.720;-2.084;2023-10-13T10:36:37;100744.47;;;18.51;100.00
64192;BME280;50497;50.720;-2.084;2023-10-13T10:39:07;100733.00;;;18.58;100.00
64192;BME280;50497;50.720;-2.084;2023-10-13T10:41:34;100688.88;;;18.68;100.00
64192;BME280;50497;50.720;-2.084;2023-10-13T10:44:11;100655.81;;;18.96;100.00
64192;BME280;50497;50.720;-2.084;2023-10-13T10:46:41;100650.50;;;19.27;100.00
64192;BME280;50497;50.720;-2.084;2023-10-13T10:49:09;100627.94;;;19.27;100.00
64192;BME280;50497;50.720;-2.084;2023-10-13T10:51:36;100608.81;;;18.86;100.00
64192;BME280;50497;50.720;-2.084;2023-10-13T10:54:17;100618.03;;;18.83;100.00
64192;BME280;50497;50.720;-2.084;2023-10-13T10:56:42;100607.78;;;18.87;100.00
64192;BME280;50497;50.720;-2.084;2023-10-13T10:59:09;100618.41;;;19.53;100.00
64192;BME280;50497;50.720;-2.084;2023-10-13T11:01:45;100619.13;;;19.55;100.00
64192;BME280;50497;50.720;-2.084;2023-10-13T11:04:16;100631.25;;;19.30;100.00
64192;BME280;50497;50.720;-2.084;2023-10-13T11:06:59;100627.50;;;19.43;100.00
64192;BME280;50497;50.720;-2.084;2023-10-13T11:11:56;100630.78;;;19.25;100.00
64192;BME280;50497;50.720;-2.084;2023-10-13T11:14:29;100613.75;;;19.02;100.00
64192;BME280;50497;50.720;-2.084;2023-10-13T11:16:55;100617.41;;;19.33;100.00
64192;BME280;50497;50.720;-2.084;2023-10-13T11:19:37;100619.00;;;19.57;100.00
64192;BME280;50497;50.720;-2.084;2023-10-13T11:22:19;100636.28;;;20.08;100.00
64192;BME280;50497;50.720;-2.084;2023-10-13T11:25:07;100617.75;;;19.61;100.00
64192;BME280;50497;50.720;-2.084;2023-10-13T11:27:39;100608.81;;;19.28;100.00
64192;BME280;50497;50.720;-2.084;2023-10-13T11:30:21;100613.44;;;19.58;100.00
64192;BME280;50497;50.720;-2.084;2023-10-13T11:33:16;100618.06;;;19.47;100.00
64192;BME280;50497;50.720;-2.084;2023-10-13T11:35:53;100603.31;;;18.97;100.00
64192;BME280;50497;50.720;-2.084;2023-10-13T11:38:19;100612.19;;;18.99;100.00
64192;BME280;50497;50.720;-2.084;2023-10-13T11:43:48;100587.63;;;19.95;100.00
64192;BME280;50497;50.720;-2.084;2023-10-13T11:46:26;100586.78;;;19.94;100.00
64192;BME280;50497;50.720;-2.084;2023-10-13T11:49:01;100589.84;;;19.80;100.00
64192;BME280;50497;50.720;-2.084;2023-10-13T11:51:30;100568.34;;;19.67;100.00
64192;BME280;50497;50.720;-2.084;2023-10-13T11:53:57;100570.84;;;19.28;100.00
64192;BME280;50497;50.720;-2.084;2023-10-13T11:56:23;100563.25;;;19.22;100.00
64192;BME280;50497;50.720;-2.084;2023-10-13T11:58:49;100564.56;;;19.07;100.00
64192;BME280;50497;50.720;-2.084;2023-10-13T12:01:15;100570.13;;;19.05;100.00
64192;BME280;50497;50.720;-2.084;2023-10-13T12:03:40;100551.47;;;19.33;100.00
64192;BME280;50497;50.720;-2.084;2023-10-13T12:06:24;100567.16;;;19.60;100.00
64192;BME280;50497;50.720;-2.084;2023-10-13T12:09:02;100558.69;;;19.53;100.00
64192;BME280;50497;50.720;-2.084;2023-10-13T12:11:36;100559.31;;;19.88;100.00
64192;BME280;50497;50.720;-2.084;2023-10-13T12:14:04;100561.56;;;20.33;100.00
64192;BME280;50497;50.720;-2.084;2023-10-13T12:16:41;100553.59;;;20.61;100.00
64192;BME280;50497;50.720;-2.084;2023-10-13T12:19:07;100559.16;;;20.49;100.00
64192;BME280;50497;50.720;-2.084;2023-10-13T12:21:36;100543.66;;;20.11;100.00
64192;BME280;50497;50.720;-2.084;2023-10-13T12:24:02;100539.09;;;20.21;100.00
64192;BME280;50497;50.720;-2.084;2023-10-13T12:26:28;100525.28;;;21.50;100.00
64192;BME280;50497;50.720;-2.084;2023-10-13T12:28:58;100530.59;;;20.84;100.00
64192;BME280;50497;50.720;-2.084;2023-10-13T12:31:31;100532.69;;;20.42;100.00
64192;BME280;50497;50.720;-2.084;2023-10-13T12:33:57;100518.94;;;19.73;100.00
64192;BME280;50497;50.720;-2.084;2023-10-13T12:36:31;100527.34;;;19.70;100.00
64192;BME280;50497;50.720;-2.084;2023-10-13T12:39:05;100533.06;;;19.67;100.00
64192;BME280;50497;50.720;-2.084;2023-10-13T12:41:34;100510.69;;;19.44;100.00
64192;BME280;50497;50.720;-2.084;2023-10-13T12:44:18;100503.16;;;19.27;100.00
64192;BME280;50497;50.720;-2.084;2023-10-13T12:47:02;100519.59;;;19.04;100.00
64192;BME280;50497;50.720;-2.084;2023-10-13T12:49:46;100516.03;;;19.04;100.00
64192;BME280;50497;50.720;-2.084;2023-10-13T12:52:17;100510.31;;;18.64;100.00
64192;BME280;50497;50.720;-2.084;2023-10-13T12:54:45;100514.69;;;18.12;100.00
64192;BME280;50497;50.720;-2.084;2023-10-13T12:57:23;100515.59;;;17.90;100.00
64192;BME280;50497;50.720;-2.084;2023-10-13T12:59:49;100525.53;;;17.89;100.00
64192;BME280;50497;50.720;-2.084;2023-10-13T13:02:14;100518.03;;;17.82;100.00
64192;BME280;50497;50.720;-2.084;2023-10-13T13:04:41;100546.22;;;18.02;100.00
64192;BME280;50497;50.720;-2.084;2023-10-13T13:07:09;100559.38;;;17.95;100.00
64192;BME280;50497;50.720;-2.084;2023-10-13T13:09:38;100542.25;;;18.06;100.00
64192;BME280;50497;50.720;-2.084;2023-10-13T13:12:04;100546.31;;;18.12;100.00
64192;BME280;50497;50.720;-2.084;2023-10-13T13:14:31;100553.75;;;18.42;100.00
64192;BME280;50497;50.720;-2.084;2023-10-13T13:16:59;100563.50;;;18.33;100.00